createdAt,value
2019-05-12T00:00:09.988Z,93.69
2019-05-12T00:01:09.971Z,93.90
2019-05-12T00:02:09.960Z,93.79
2019-05-12T00:03:09.959Z,93.79
2019-05-12T00:04:09.939Z,93.49
2019-05-12T00:05:09.919Z,93.38
2019-05-12T00:06:09.910Z,93.38
2019-05-12T00:07:09.899Z,93.49
2019-05-12T00:08:09.909Z,93.28
2019-05-12T00:09:09.878Z,93.79
2019-05-12T00:10:09.869Z,93.79
2019-05-12T00:11:09.858Z,93.59
2019-05-12T00:12:09.849Z,93.90
2019-05-12T00:13:09.848Z,94.31
2019-05-12T00:14:09.835Z,94.10
2019-05-12T00:15:09.818Z,93.79
2019-05-12T00:16:09.807Z,93.90
2019-05-12T00:17:09.798Z,94.62
2019-05-12T00:18:09.811Z,94.21
2019-05-12T00:19:09.777Z,94.10
2019-05-12T00:20:09.767Z,94.00
2019-05-12T00:21:09.757Z,93.69
2019-05-12T00:22:09.746Z,93.38
2019-05-12T00:23:23.722Z,93.38
2019-05-12T00:24:10.727Z,93.49
2019-05-12T00:25:09.716Z,93.79
2019-05-12T00:26:09.705Z,93.90
2019-05-12T00:27:09.696Z,94.00
2019-05-12T00:28:09.696Z,93.90
2019-05-12T00:29:09.675Z,94.31
2019-05-12T00:30:10.259Z,94.42
2019-05-12T00:31:09.647Z,94.31
2019-05-12T00:32:09.646Z,94.31
2019-05-12T00:33:09.776Z,94.52
2019-05-12T00:34:09.615Z,94.72
2019-05-12T00:35:09.643Z,94.52
2019-05-12T00:36:09.596Z,94.10
2019-05-12T00:37:09.586Z,94.00
2019-05-12T00:38:09.616Z,94.21
2019-05-12T00:39:09.564Z,94.42
2019-05-12T00:40:09.555Z,94.31
2019-05-12T00:41:09.543Z,94.42
2019-05-12T00:42:09.534Z,94.72
2019-05-12T00:43:09.535Z,94.97
2019-05-12T00:44:09.513Z,95.39
2019-05-12T00:45:09.503Z,95.28
2019-05-12T00:46:09.496Z,95.07
2019-05-12T00:47:09.483Z,95.18
2019-05-12T00:48:09.739Z,94.97
2019-05-12T00:49:09.465Z,94.67
2019-05-12T00:50:09.452Z,94.56
2019-05-12T00:51:09.432Z,94.67
2019-05-12T00:52:09.422Z,95.12
2019-05-12T00:53:09.638Z,95.22
2019-05-12T00:54:09.499Z,95.32
2019-05-12T00:55:09.392Z,95.53
2019-05-12T00:56:09.386Z,95.43
2019-05-12T00:57:09.372Z,95.32
2019-05-12T00:58:09.380Z,95.43
2019-05-12T00:59:09.352Z,95.22
2019-05-12T01:00:09.342Z,95.43
2019-05-12T01:01:09.375Z,95.84
2019-05-12T01:02:09.330Z,96.05
2019-05-12T01:03:09.343Z,96.31
2019-05-12T01:04:09.301Z,95.80
2019-05-12T01:05:09.289Z,95.59
2019-05-12T01:06:09.280Z,95.49
2019-05-12T01:07:09.269Z,95.28
2019-05-12T01:08:09.726Z,95.28
2019-05-12T01:09:09.252Z,94.82
2019-05-12T01:10:09.239Z,94.62
2019-05-12T01:11:09.235Z,93.79
2019-05-12T01:12:09.219Z,93.69
2019-05-12T01:13:09.276Z,93.59
2019-05-12T01:14:09.209Z,93.73
2019-05-12T01:15:09.182Z,93.94
2019-05-12T01:16:09.169Z,94.04
2019-05-12T01:17:09.158Z,94.25
2019-05-12T01:18:09.707Z,94.67
2019-05-12T01:19:09.149Z,94.87
2019-05-12T01:20:09.128Z,95.12
2019-05-12T01:21:09.118Z,95.12
2019-05-12T01:22:09.110Z,95.53
2019-05-12T01:23:09.234Z,95.43
2019-05-12T01:24:09.219Z,95.32
2019-05-12T01:25:09.078Z,95.32
2019-05-12T01:26:09.068Z,95.64
2019-05-12T01:27:09.058Z,96.05
2019-05-12T01:28:09.056Z,96.15
2019-05-12T01:29:09.047Z,96.05
2019-05-12T01:30:09.086Z,96.36
2019-05-12T01:31:09.017Z,96.26
2019-05-12T01:32:09.006Z,96.67
2019-05-12T01:33:09.129Z,96.56
2019-05-12T01:34:08.996Z,96.56
2019-05-12T01:35:08.981Z,96.56
2019-05-12T01:36:08.966Z,96.31
2019-05-12T01:37:08.955Z,96.52
2019-05-12T01:38:08.961Z,96.42
2019-05-12T01:39:08.947Z,96.52
2019-05-12T01:40:09.275Z,96.11
2019-05-12T01:41:08.905Z,95.59
2019-05-12T01:42:09.169Z,95.65
2019-05-12T01:43:09.119Z,95.65
2019-05-12T01:44:09.070Z,95.55
2019-05-12T01:45:09.459Z,94.72
2019-05-12T01:46:08.856Z,94.42
2019-05-12T01:47:08.845Z,94.52
2019-05-12T01:48:09.385Z,95.03
2019-05-12T01:49:08.842Z,95.03
2019-05-12T01:50:09.337Z,95.03
2019-05-12T01:51:08.804Z,94.93
2019-05-12T01:52:08.794Z,94.52
2019-05-12T01:53:08.961Z,94.10
2019-05-12T01:54:14.589Z,94.00
2019-05-12T01:55:09.755Z,94.31
2019-05-12T01:56:08.753Z,94.21
2019-05-12T01:57:08.735Z,94.21
2019-05-12T01:58:08.927Z,94.21
2019-05-12T01:59:08.730Z,94.31
2019-05-12T02:00:08.703Z,94.62
2019-05-12T02:01:08.693Z,94.72
2019-05-12T02:02:08.708Z,94.52
2019-05-12T02:03:09.491Z,94.52
2019-05-12T02:04:08.671Z,94.21
2019-05-12T02:05:08.887Z,94.31
2019-05-12T02:06:08.641Z,94.62
2019-05-12T02:07:08.640Z,94.21
2019-05-12T02:08:09.738Z,94.17
2019-05-12T02:09:08.631Z,94.17
2019-05-12T02:10:09.310Z,94.37
2019-05-12T02:11:08.593Z,94.37
2019-05-12T02:12:08.579Z,94.06
2019-05-12T02:13:08.572Z,93.85
2019-05-12T02:14:09.242Z,93.75
2019-05-12T02:15:08.558Z,93.54
2019-05-12T02:16:08.541Z,93.54
2019-05-12T02:17:08.826Z,93.75
2019-05-12T02:18:09.245Z,94.27
2019-05-12T02:19:09.216Z,94.27
2019-05-12T02:20:08.500Z,94.06
2019-05-12T02:21:08.514Z,93.96
2019-05-12T02:22:08.540Z,93.75
2019-05-12T02:23:09.103Z,93.65
2019-05-12T02:24:23.034Z,93.03
2019-05-12T02:25:09.446Z,93.13
2019-05-12T02:26:08.457Z,93.34
2019-05-12T02:27:08.428Z,93.34
2019-05-12T02:28:09.248Z,93.13
2019-05-12T02:29:08.419Z,93.44
2019-05-12T02:30:10.027Z,93.13
2019-05-12T02:31:09.526Z,92.82
2019-05-12T02:32:08.379Z,92.76
2019-05-12T02:33:08.369Z,93.07
2019-05-12T02:34:08.401Z,93.28
2019-05-12T02:35:08.349Z,93.59
2019-05-12T02:36:08.337Z,93.59
2019-05-12T02:37:08.329Z,93.90
2019-05-12T02:38:08.320Z,93.90
2019-05-12T02:39:08.344Z,93.49
2019-05-12T02:40:08.291Z,93.63
2019-05-12T02:41:08.290Z,94.04
2019-05-12T02:42:08.277Z,94.15
2019-05-12T02:43:08.256Z,94.25
2019-05-12T02:44:08.248Z,94.46
2019-05-12T02:45:08.263Z,94.92
2019-05-12T02:46:08.226Z,95.02
2019-05-12T02:47:08.216Z,94.92
2019-05-12T02:48:08.206Z,95.12
2019-05-12T02:49:08.195Z,95.22
2019-05-12T02:50:08.195Z,95.12
2019-05-12T02:51:08.177Z,94.60
2019-05-12T02:52:08.171Z,94.50
2019-05-12T02:53:08.228Z,94.71
2019-05-12T02:54:08.146Z,94.92
2019-05-12T02:55:08.144Z,94.60
2019-05-12T02:56:08.132Z,95.12
2019-05-12T02:57:08.115Z,95.32
2019-05-12T02:58:08.104Z,95.22
2019-05-12T02:59:08.097Z,95.12
2019-05-12T03:00:08.098Z,95.12
2019-05-12T03:01:08.072Z,94.92
2019-05-12T03:02:08.062Z,94.71
2019-05-12T03:03:08.085Z,94.81
2019-05-12T03:04:08.049Z,94.92
2019-05-12T03:05:08.041Z,94.92
2019-05-12T03:06:08.013Z,95.22
2019-05-12T03:07:08.002Z,95.22
2019-05-12T03:08:08.010Z,95.22
2019-05-12T03:09:07.994Z,94.35
2019-05-12T03:10:07.991Z,94.04
2019-05-12T03:11:07.963Z,94.15
2019-05-12T03:12:07.953Z,94.04
2019-05-12T03:13:07.943Z,93.94
2019-05-12T03:14:07.938Z,94.04
2019-05-12T03:15:07.931Z,94.46
2019-05-12T03:16:07.913Z,94.67
2019-05-12T03:17:07.897Z,94.77
2019-05-12T03:18:07.895Z,94.35
2019-05-12T03:19:07.883Z,94.04
2019-05-12T03:20:07.890Z,93.79
2019-05-12T03:21:07.854Z,93.69
2019-05-12T03:22:07.842Z,93.59
2019-05-12T03:23:07.831Z,93.49
2019-05-12T03:24:07.819Z,93.07
2019-05-12T03:25:19.992Z,93.07
2019-05-12T03:26:08.800Z,93.18
2019-05-12T03:27:07.789Z,93.18
2019-05-12T03:28:09.102Z,92.86
2019-05-12T03:29:07.774Z,92.76
2019-05-12T03:30:12.058Z,92.97
2019-05-12T03:31:08.998Z,93.18
2019-05-12T03:32:08.762Z,93.18
2019-05-12T03:33:10.518Z,92.97
2019-05-12T03:34:10.163Z,92.70
2019-05-12T03:35:09.056Z,92.50
2019-05-12T03:36:09.906Z,92.70
2019-05-12T03:37:08.614Z,92.80
2019-05-12T03:38:07.670Z,93.16
2019-05-12T03:39:07.657Z,93.47
2019-05-12T03:40:07.656Z,93.68
2019-05-12T03:41:07.657Z,93.88
2019-05-12T03:42:07.628Z,93.88
2019-05-12T03:43:07.619Z,93.98
2019-05-12T03:44:07.609Z,94.09
2019-05-12T03:45:07.597Z,94.40
2019-05-12T03:46:07.599Z,94.60
2019-05-12T03:47:07.576Z,95.22
2019-05-12T03:48:07.567Z,94.81
2019-05-12T03:49:07.559Z,94.50
2019-05-12T03:50:07.539Z,94.29
2019-05-12T03:51:07.537Z,94.15
2019-05-12T03:52:07.515Z,94.09
2019-05-12T03:53:10.827Z,94.09
2019-05-12T03:54:07.517Z,94.04
2019-05-12T03:55:26.266Z,94.04
2019-05-12T03:56:08.485Z,94.04
2019-05-12T03:57:07.463Z,93.73
2019-05-12T03:58:07.455Z,93.63
2019-05-12T03:59:07.448Z,93.32
2019-05-12T04:00:07.454Z,93.01
2019-05-12T04:01:07.434Z,93.12
2019-05-12T04:02:07.415Z,93.01
2019-05-12T04:03:07.394Z,92.80
2019-05-12T04:04:07.384Z,93.12
2019-05-12T04:05:07.379Z,93.32
2019-05-12T04:06:07.389Z,92.91
2019-05-12T04:07:07.358Z,93.12
2019-05-12T04:08:07.344Z,93.22
2019-05-12T04:09:07.361Z,93.22
2019-05-12T04:10:07.327Z,93.73
2019-05-12T04:11:07.327Z,93.94
2019-05-12T04:12:07.303Z,93.94
2019-05-12T04:13:07.292Z,93.94
2019-05-12T04:14:07.287Z,93.84
2019-05-12T04:15:07.278Z,93.73
2019-05-12T04:16:07.270Z,93.73
2019-05-12T04:17:07.242Z,93.69
2019-05-12T04:18:07.234Z,93.59
2019-05-12T04:19:07.228Z,93.38
2019-05-12T04:20:07.223Z,93.49
2019-05-12T04:21:07.253Z,93.49
2019-05-12T04:22:07.200Z,93.28
2019-05-12T04:23:07.275Z,93.59
2019-05-12T04:24:07.177Z,93.59
2019-05-12T04:25:07.161Z,93.69
2019-05-12T04:26:12.344Z,93.59
2019-05-12T04:27:08.148Z,92.97
2019-05-12T04:28:07.130Z,92.86
2019-05-12T04:29:07.123Z,92.66
2019-05-12T04:30:07.106Z,92.55
2019-05-12T04:31:07.112Z,92.76
2019-05-12T04:32:07.090Z,93.18
2019-05-12T04:33:07.070Z,93.38
2019-05-12T04:34:07.069Z,93.90
2019-05-12T04:35:07.067Z,93.59
2019-05-12T04:36:07.051Z,94.00
2019-05-12T04:37:07.099Z,93.79
2019-05-12T04:38:07.032Z,93.69
2019-05-12T04:39:07.030Z,93.59
2019-05-12T04:40:07.002Z,93.49
2019-05-12T04:41:07.000Z,93.38
2019-05-12T04:42:06.969Z,93.18
2019-05-12T04:43:07.085Z,93.18
2019-05-12T04:44:07.002Z,93.03
2019-05-12T04:45:06.939Z,92.72
2019-05-12T04:46:06.936Z,92.21
2019-05-12T04:47:06.945Z,92.10
2019-05-12T04:48:06.934Z,92.10
2019-05-12T04:49:06.911Z,92.31
2019-05-12T04:50:06.887Z,92.10
2019-05-12T04:51:06.877Z,92.31
2019-05-12T04:52:06.876Z,92.72
2019-05-12T04:53:07.086Z,92.61
2019-05-12T04:54:06.880Z,92.10
2019-05-12T04:55:06.836Z,92.10
2019-05-12T04:56:15.631Z,92.41
2019-05-12T04:57:07.828Z,92.41
2019-05-12T04:58:06.806Z,91.89
2019-05-12T04:59:06.796Z,91.48
2019-05-12T05:00:06.800Z,91.07
2019-05-12T05:01:06.787Z,91.58
2019-05-12T05:02:06.778Z,91.69
2019-05-12T05:03:06.753Z,91.07
2019-05-12T05:04:06.734Z,91.17
2019-05-12T05:05:06.740Z,91.38
2019-05-12T05:06:06.714Z,91.38
2019-05-12T05:07:06.727Z,90.97
2019-05-12T05:08:06.709Z,90.86
2019-05-12T05:09:06.684Z,90.86
2019-05-12T05:10:06.674Z,90.76
2019-05-12T05:11:06.664Z,90.55
2019-05-12T05:12:06.664Z,91.38
2019-05-12T05:13:06.642Z,91.89
2019-05-12T05:14:06.637Z,90.97
2019-05-12T05:15:06.625Z,90.76
2019-05-12T05:16:06.616Z,91.48
2019-05-12T05:17:06.620Z,91.07
2019-05-12T05:18:07.019Z,91.48
2019-05-12T05:19:06.582Z,90.76
2019-05-12T05:20:06.572Z,89.79
2019-05-12T05:21:06.562Z,89.48
2019-05-12T05:22:06.563Z,89.42
2019-05-12T05:23:06.542Z,89.42
2019-05-12T05:24:06.529Z,90.08
2019-05-12T05:25:06.521Z,90.39
2019-05-12T05:26:20.674Z,90.91
2019-05-12T05:27:07.511Z,91.22
2019-05-12T05:28:06.483Z,91.48
2019-05-12T05:29:06.480Z,91.28
2019-05-12T05:30:06.471Z,91.07
2019-05-12T05:31:06.460Z,91.07
2019-05-12T05:32:06.462Z,90.20
2019-05-12T05:33:06.441Z,90.31
2019-05-12T05:34:06.430Z,90.20
2019-05-12T05:35:07.783Z,89.58
2019-05-12T05:36:08.930Z,89.58
2019-05-12T05:37:07.411Z,90.06
2019-05-12T05:38:10.768Z,89.75
2019-05-12T05:39:07.385Z,89.34
2019-05-12T05:40:06.370Z,88.92
2019-05-12T05:41:10.428Z,88.72
2019-05-12T05:42:06.359Z,88.41
2019-05-12T05:43:18.248Z,88.82
2019-05-12T05:44:07.320Z,89.95
2019-05-12T05:45:10.016Z,89.75
2019-05-12T05:46:08.151Z,89.03
2019-05-12T05:47:06.310Z,89.13
2019-05-12T05:48:09.979Z,89.34
2019-05-12T05:49:06.279Z,90.00
2019-05-12T05:50:06.267Z,90.10
2019-05-12T05:51:09.065Z,90.31
2019-05-12T05:52:06.248Z,89.54
2019-05-12T05:53:09.316Z,89.03
2019-05-12T05:54:07.227Z,88.92
2019-05-12T05:55:14.475Z,88.72
2019-05-12T05:56:07.207Z,88.41
2019-05-12T05:57:06.380Z,89.13
2019-05-12T05:58:10.336Z,90.16
2019-05-12T05:59:06.177Z,90.57
2019-05-12T06:00:07.205Z,89.95
2019-05-12T06:01:08.336Z,89.19
2019-05-12T06:02:06.146Z,88.68
2019-05-12T06:03:06.262Z,89.09
2019-05-12T06:04:08.629Z,88.37
2019-05-12T06:05:06.118Z,88.06
2019-05-12T06:06:10.400Z,88.06
2019-05-12T06:07:07.095Z,87.96
2019-05-12T06:08:09.608Z,88.47
2019-05-12T06:09:07.079Z,88.64
2019-05-12T06:10:06.074Z,88.02
2019-05-12T06:11:08.560Z,86.58
2019-05-12T06:12:09.773Z,86.88
2019-05-12T06:13:06.058Z,86.85
2019-05-12T06:14:11.440Z,86.85
2019-05-12T06:15:08.965Z,87.05
2019-05-12T06:16:06.005Z,87.30
2019-05-12T06:17:06.005Z,86.99
2019-05-12T06:18:06.004Z,87.19
2019-05-12T06:19:05.982Z,87.05
2019-05-12T06:20:05.980Z,86.95
2019-05-12T06:21:05.964Z,87.46
2019-05-12T06:22:09.119Z,87.77
2019-05-12T06:23:06.953Z,87.05
2019-05-12T06:24:08.706Z,86.64
2019-05-12T06:25:06.934Z,87.05
2019-05-12T06:26:05.942Z,87.51
2019-05-12T06:27:15.071Z,87.30
2019-05-12T06:28:08.861Z,87.60
2019-05-12T06:29:05.882Z,87.51
2019-05-12T06:30:06.452Z,87.46
2019-05-12T06:31:05.861Z,87.67
2019-05-12T06:32:10.643Z,87.67
2019-05-12T06:33:06.853Z,87.46
2019-05-12T06:34:13.967Z,87.46
2019-05-12T06:35:06.822Z,87.46
2019-05-12T06:36:07.564Z,87.77
2019-05-12T06:37:12.088Z,87.77
2019-05-12T06:38:06.800Z,87.77
2019-05-12T06:39:10.496Z,87.87
2019-05-12T06:40:06.770Z,88.08
2019-05-12T06:41:05.760Z,87.98
2019-05-12T06:42:12.240Z,87.67
2019-05-12T06:43:06.760Z,87.57
2019-05-12T06:44:08.850Z,87.15
2019-05-12T06:45:06.718Z,86.80
2019-05-12T06:46:05.709Z,87.12
2019-05-12T06:47:08.050Z,85.78
2019-05-12T06:48:05.690Z,85.82
2019-05-12T06:49:12.798Z,85.98
2019-05-12T06:50:06.669Z,86.08
2019-05-12T06:51:09.266Z,85.06
2019-05-12T06:52:07.313Z,83.97
2019-05-12T06:53:05.649Z,84.38
2019-05-12T06:54:11.819Z,80.88
2019-05-12T06:55:06.621Z,77.79
2019-05-12T06:56:09.365Z,79.54
2019-05-12T06:57:20.672Z,80.88
2019-05-12T06:58:06.588Z,83.14
2019-05-12T06:59:09.856Z,84.27
2019-05-12T07:00:05.568Z,83.86
2019-05-12T07:01:10.978Z,83.55
2019-05-12T07:02:06.558Z,83.76
2019-05-12T07:03:05.537Z,82.56
2019-05-12T07:04:09.746Z,82.87
2019-05-12T07:05:05.517Z,83.49
2019-05-12T07:06:09.106Z,83.39
2019-05-12T07:07:06.498Z,83.39
2019-05-12T07:08:05.487Z,82.15
2019-05-12T07:09:09.536Z,82.97
2019-05-12T07:10:11.630Z,82.56
2019-05-12T07:11:06.464Z,82.77
2019-05-12T07:12:07.086Z,81.95
2019-05-12T07:13:06.136Z,80.09
2019-05-12T07:14:13.047Z,78.86
2019-05-12T07:15:06.493Z,82.15
2019-05-12T07:16:10.141Z,83.18
2019-05-12T07:17:06.473Z,84.11
2019-05-12T07:18:05.395Z,82.46
2019-05-12T07:19:07.812Z,83.59
2019-05-12T07:20:06.374Z,84.58
2019-05-12T07:21:09.377Z,84.69
2019-05-12T07:22:18.090Z,83.86
2019-05-12T07:23:06.344Z,83.25
2019-05-12T07:24:06.758Z,83.04
2019-05-12T07:25:08.197Z,82.83
2019-05-12T07:26:14.045Z,81.70
2019-05-12T07:27:09.107Z,82.21
2019-05-12T07:28:07.799Z,82.01
2019-05-12T07:29:05.294Z,83.51
2019-05-12T07:30:05.273Z,84.23
2019-05-12T07:31:05.264Z,84.75
2019-05-12T07:32:06.882Z,83.92
2019-05-12T07:33:06.243Z,85.16
2019-05-12T07:34:07.722Z,84.23
2019-05-12T07:35:05.231Z,80.94
2019-05-12T07:36:06.403Z,77.65
2019-05-12T07:37:05.212Z,77.82
2019-05-12T07:38:05.232Z,79.47
2019-05-12T07:39:06.228Z,78.64
2019-05-12T07:40:05.183Z,77.92
2019-05-12T07:41:06.740Z,75.25
2019-05-12T07:42:06.152Z,70.94
2019-05-12T07:43:09.761Z,71.86
2019-05-12T07:44:06.162Z,74.43
2019-05-12T07:45:05.132Z,73.68
2019-05-12T07:46:07.065Z,73.98
2019-05-12T07:47:05.102Z,68.23
2019-05-12T07:48:09.949Z,68.81
2019-05-12T07:49:06.082Z,64.40
2019-05-12T07:50:09.959Z,66.96
2019-05-12T07:51:06.060Z,67.27
2019-05-12T07:52:05.052Z,69.60
2019-05-12T07:53:05.041Z,68.68
2019-05-12T07:54:05.030Z,70.94
2019-05-12T07:55:05.044Z,71.01
2019-05-12T07:56:05.012Z,70.90
2019-05-12T07:57:11.864Z,71.18
2019-05-12T07:58:13.828Z,71.48
2019-05-12T07:59:05.980Z,70.84
2019-05-12T08:00:04.980Z,70.94
2019-05-12T08:01:07.767Z,72.58
2019-05-12T08:02:04.950Z,71.04
2019-05-12T08:03:14.718Z,69.06
2019-05-12T08:04:05.928Z,69.78
2019-05-12T08:05:04.938Z,70.60
2019-05-12T08:06:04.909Z,71.42
2019-05-12T08:07:04.898Z,69.06
2019-05-12T08:08:10.901Z,67.11
2019-05-12T08:09:05.878Z,66.78
2019-05-12T08:10:07.237Z,66.57
2019-05-12T08:11:05.859Z,66.16
2019-05-12T08:12:09.684Z,64.83
2019-05-12T08:13:05.837Z,64.42
2019-05-12T08:14:04.826Z,62.88
2019-05-12T08:15:09.479Z,63.81
2019-05-12T08:16:05.799Z,65.34
2019-05-12T08:17:11.131Z,65.55
2019-05-12T08:18:07.990Z,64.25
2019-05-12T08:19:07.922Z,65.34
2019-05-12T08:20:04.786Z,63.12
2019-05-12T08:21:04.747Z,67.02
2019-05-12T08:22:04.737Z,64.04
2019-05-12T08:23:08.895Z,64.14
2019-05-12T08:24:05.709Z,65.41
2019-05-12T08:25:04.706Z,67.35
2019-05-12T08:26:11.945Z,67.66
2019-05-12T08:27:06.601Z,65.95
2019-05-12T08:28:14.886Z,65.54
2019-05-12T08:29:10.519Z,66.87
2019-05-12T08:30:06.277Z,67.18
2019-05-12T08:31:04.626Z,69.13
2019-05-12T08:32:04.627Z,70.12
2019-05-12T08:33:09.479Z,70.32
2019-05-12T08:34:05.597Z,69.92
2019-05-12T08:35:05.149Z,71.32
2019-05-12T08:36:11.471Z,68.65
2019-05-12T08:37:05.565Z,67.43
2019-05-12T08:38:04.557Z,67.86
2019-05-12T08:39:06.209Z,67.86
2019-05-12T08:40:07.644Z,67.28
2019-05-12T08:41:04.526Z,69.02
2019-05-12T08:42:04.514Z,66.67
2019-05-12T08:43:10.013Z,68.82
2019-05-12T08:44:05.485Z,70.56
2019-05-12T08:45:07.979Z,69.10
2019-05-12T08:46:07.016Z,68.89
2019-05-12T08:47:05.454Z,67.46
2019-05-12T08:48:04.444Z,67.59
2019-05-12T08:49:05.327Z,67.66
2019-05-12T08:50:04.919Z,67.76
2019-05-12T08:51:13.614Z,65.41
2019-05-12T08:52:05.393Z,67.86
2019-05-12T08:53:04.808Z,68.07
2019-05-12T08:54:07.818Z,68.79
2019-05-12T08:55:04.454Z,69.37
2019-05-12T08:56:12.698Z,68.76
2019-05-12T08:57:05.334Z,67.94
2019-05-12T08:58:04.339Z,69.47
2019-05-12T08:59:04.515Z,69.17
2019-05-12T09:00:08.622Z,68.35
2019-05-12T09:01:04.512Z,68.83
2019-05-12T09:02:07.269Z,70.57
2019-05-12T09:03:05.272Z,66.06
2019-05-12T09:04:06.693Z,64.25
2019-05-12T09:05:05.251Z,65.68
2019-05-12T09:06:09.105Z,63.87
2019-05-12T09:07:05.222Z,64.69
2019-05-12T09:08:04.219Z,64.59
2019-05-12T09:09:04.213Z,64.89
2019-05-12T09:10:04.302Z,64.28
2019-05-12T09:11:04.205Z,64.48
2019-05-12T09:12:04.171Z,64.89
2019-05-12T09:13:04.339Z,63.46
2019-05-12T09:14:05.867Z,64.28
2019-05-12T09:15:04.822Z,64.48
2019-05-12T09:16:04.414Z,63.12
2019-05-12T09:17:07.279Z,63.32
2019-05-12T09:18:05.007Z,64.53
2019-05-12T09:19:04.922Z,62.17
2019-05-12T09:20:08.381Z,62.99
2019-05-12T09:21:04.080Z,64.32
2019-05-12T09:22:14.468Z,62.27
2019-05-12T09:23:05.171Z,60.42
2019-05-12T09:24:04.382Z,61.76
2019-05-12T09:25:08.274Z,60.02
2019-05-12T09:26:04.218Z,61.35
2019-05-12T09:27:04.989Z,62.45
2019-05-12T09:28:04.017Z,60.91
2019-05-12T09:29:06.974Z,60.30
2019-05-12T09:30:05.377Z,61.83
2019-05-12T09:31:04.968Z,61.09
2019-05-12T09:32:07.376Z,63.03
2019-05-12T09:33:04.929Z,62.62
2019-05-12T09:34:11.505Z,62.01
2019-05-12T09:35:04.910Z,64.77
2019-05-12T09:36:04.398Z,64.95
2019-05-12T09:37:04.172Z,61.50
2019-05-12T09:38:06.092Z,61.09
2019-05-12T09:39:05.771Z,60.71
2019-05-12T09:40:04.634Z,63.06
2019-05-12T09:41:05.421Z,61.83
2019-05-12T09:42:03.971Z,62.85
2019-05-12T09:43:06.395Z,62.68
2019-05-12T09:44:04.807Z,64.53
2019-05-12T09:45:06.029Z,62.68
2019-05-12T09:46:04.788Z,62.37
2019-05-12T09:47:04.382Z,62.99
2019-05-12T09:48:08.745Z,63.20
2019-05-12T09:49:04.737Z,62.48
2019-05-12T09:50:04.321Z,62.88
2019-05-12T09:51:05.819Z,62.99
2019-05-12T09:52:03.784Z,61.25
2019-05-12T09:53:07.048Z,60.53
2019-05-12T09:54:05.348Z,60.35
2019-05-12T09:55:04.268Z,60.86
2019-05-12T09:56:04.515Z,63.40
2019-05-12T09:57:04.388Z,63.70
2019-05-12T09:58:04.164Z,59.71
2019-05-12T09:59:17.210Z,59.33
2019-05-12T10:00:04.642Z,60.25
2019-05-12T10:01:03.697Z,60.38
2019-05-12T10:02:03.835Z,61.41
2019-05-12T10:03:04.827Z,61.48
2019-05-12T10:04:03.638Z,60.89
2019-05-12T10:05:04.041Z,60.97
2019-05-12T10:06:03.802Z,61.48
2019-05-12T10:07:03.878Z,59.50
2019-05-12T10:08:04.515Z,59.41
2019-05-12T10:09:03.595Z,59.41
2019-05-12T10:10:03.801Z,58.66
2019-05-12T10:11:03.835Z,57.23
2019-05-12T10:12:05.519Z,56.20
2019-05-12T10:13:04.649Z,56.00
2019-05-12T10:14:06.505Z,56.13
2019-05-12T10:15:04.496Z,55.10
2019-05-12T10:16:04.989Z,57.46
2019-05-12T10:17:04.426Z,57.05
2019-05-12T10:18:06.414Z,58.58
2019-05-12T10:19:04.411Z,57.43
2019-05-12T10:20:03.401Z,56.71
2019-05-12T10:21:03.393Z,56.61
2019-05-12T10:22:03.381Z,58.15
2019-05-12T10:23:04.419Z,58.97
2019-05-12T10:24:05.050Z,59.25
2019-05-12T10:25:04.046Z,55.66
2019-05-12T10:26:09.959Z,55.87
2019-05-12T10:27:04.314Z,54.95
2019-05-12T10:28:11.411Z,56.07
2019-05-12T10:29:16.295Z,59.66
2019-05-12T10:30:11.857Z,57.89
2019-05-12T10:31:04.323Z,57.79
2019-05-12T10:32:04.017Z,55.74
2019-05-12T10:33:03.978Z,54.31
2019-05-12T10:34:03.450Z,55.94
2019-05-12T10:35:03.222Z,55.94
2019-05-12T10:36:06.847Z,55.13
2019-05-12T10:37:04.271Z,56.15
2019-05-12T10:38:06.252Z,55.13
2019-05-12T10:39:04.312Z,55.94
2019-05-12T10:40:03.742Z,54.21
2019-05-12T10:41:04.254Z,54.54
2019-05-12T10:42:03.160Z,55.15
2019-05-12T10:43:04.484Z,56.07
2019-05-12T10:44:04.096Z,54.44
2019-05-12T10:45:04.244Z,54.03
2019-05-12T10:46:04.220Z,54.61
2019-05-12T10:47:04.460Z,53.82
2019-05-12T10:48:03.613Z,55.84
2019-05-12T10:49:03.944Z,53.69
2019-05-12T10:50:03.051Z,54.41
2019-05-12T10:51:03.050Z,56.15
2019-05-12T10:52:03.937Z,52.37
2019-05-12T10:53:04.586Z,52.26
2019-05-12T10:54:12.109Z,51.75
2019-05-12T10:55:04.420Z,52.87
2019-05-12T10:56:02.990Z,53.28
2019-05-12T10:57:04.927Z,52.47
2019-05-12T10:58:06.500Z,50.83
2019-05-12T10:59:04.291Z,50.63
2019-05-12T11:00:04.155Z,51.67
2019-05-12T11:01:05.315Z,49.42
2019-05-12T11:02:03.929Z,49.52
2019-05-12T11:03:10.297Z,50.65
2019-05-12T11:04:04.042Z,51.26
2019-05-12T11:05:02.889Z,53.21
2019-05-12T11:06:07.302Z,52.98
2019-05-12T11:07:04.649Z,53.28
2019-05-12T11:08:08.630Z,51.54
2019-05-12T11:09:03.849Z,51.47
2019-05-12T11:10:14.927Z,52.16
2019-05-12T11:11:04.257Z,52.37
2019-05-12T11:12:03.370Z,52.78
2019-05-12T11:13:08.759Z,54.31
2019-05-12T11:14:03.981Z,54.21
2019-05-12T11:15:06.659Z,54.49
2019-05-12T11:16:03.926Z,52.47
2019-05-12T11:17:07.573Z,53.39
2019-05-12T11:18:03.737Z,54.00
2019-05-12T11:19:06.346Z,53.08
2019-05-12T11:20:04.143Z,53.11
2019-05-12T11:21:03.657Z,52.90
2019-05-12T11:22:03.639Z,55.33
2019-05-12T11:23:03.481Z,53.21
2019-05-12T11:24:03.829Z,54.13
2019-05-12T11:25:04.297Z,53.52
2019-05-12T11:26:03.902Z,53.92
2019-05-12T11:27:04.096Z,54.44
2019-05-12T11:28:03.731Z,55.26
2019-05-12T11:29:03.764Z,55.46
2019-05-12T11:30:04.290Z,56.69
2019-05-12T11:31:02.598Z,57.71
2019-05-12T11:32:02.588Z,56.69
2019-05-12T11:33:04.335Z,55.36
2019-05-12T11:34:04.642Z,54.16
2019-05-12T11:35:04.132Z,55.79
2019-05-12T11:36:04.386Z,55.18
2019-05-12T11:37:03.379Z,53.44
2019-05-12T11:38:04.571Z,52.42
2019-05-12T11:39:03.676Z,53.64
2019-05-12T11:40:04.342Z,52.83
2019-05-12T11:41:04.256Z,53.72
2019-05-12T11:42:04.234Z,54.23
2019-05-12T11:43:04.257Z,54.74
2019-05-12T11:44:03.957Z,52.59
2019-05-12T11:45:02.424Z,54.44
2019-05-12T11:46:02.413Z,52.19
2019-05-12T11:47:03.728Z,52.90
2019-05-12T11:48:05.791Z,51.26
2019-05-12T11:49:04.392Z,52.49
2019-05-12T11:50:04.953Z,51.65
2019-05-12T11:51:03.933Z,52.47
2019-05-12T11:52:07.375Z,51.14
2019-05-12T11:53:04.316Z,49.81
2019-05-12T11:54:03.468Z,53.16
2019-05-12T11:55:03.313Z,53.34
2019-05-12T11:56:07.426Z,50.25
2019-05-12T11:57:03.288Z,50.66
2019-05-12T11:58:06.846Z,48.00
2019-05-12T11:59:03.263Z,49.43
2019-05-12T12:00:05.166Z,48.92
2019-05-12T12:01:04.697Z,47.08
2019-05-12T12:02:03.223Z,48.61
2019-05-12T12:03:03.805Z,45.96
2019-05-12T12:04:03.713Z,45.35
2019-05-12T12:05:02.191Z,44.32
2019-05-12T12:06:02.177Z,46.57
2019-05-12T12:07:02.172Z,46.06
2019-05-12T12:08:03.982Z,47.11
2019-05-12T12:09:03.946Z,49.15
2019-05-12T12:10:03.728Z,48.54
2019-05-12T12:11:03.934Z,48.64
2019-05-12T12:12:07.095Z,48.84
2019-05-12T12:13:03.785Z,50.09
2019-05-12T12:14:08.438Z,49.38
2019-05-12T12:15:04.692Z,49.15
2019-05-12T12:16:09.326Z,48.94
2019-05-12T12:17:03.051Z,50.07
2019-05-12T12:18:03.851Z,49.25
2019-05-12T12:19:05.813Z,51.37
2019-05-12T12:20:03.745Z,51.55
2019-05-12T12:21:05.788Z,48.18
2019-05-12T12:22:04.372Z,49.18
2019-05-12T12:23:06.574Z,45.53
2019-05-12T12:24:03.888Z,45.22
2019-05-12T12:25:05.077Z,43.98
2019-05-12T12:26:03.962Z,44.71
2019-05-12T12:27:03.774Z,44.49
2019-05-12T12:28:04.073Z,45.92
2019-05-12T12:29:03.370Z,43.16
2019-05-12T12:30:15.266Z,42.45
2019-05-12T12:31:05.356Z,43.57
2019-05-12T12:32:01.870Z,42.63
2019-05-12T12:33:04.090Z,43.26
2019-05-12T12:34:01.848Z,44.59
2019-05-12T12:35:08.921Z,43.98
2019-05-12T12:36:04.134Z,45.49
2019-05-12T12:37:03.300Z,44.49
2019-05-12T12:38:03.547Z,44.69
2019-05-12T12:39:04.047Z,46.02
2019-05-12T12:40:04.085Z,46.94
2019-05-12T12:41:03.748Z,46.14
2019-05-12T12:42:01.749Z,45.35
2019-05-12T12:43:03.829Z,46.06
2019-05-12T12:44:01.729Z,46.88
2019-05-12T12:45:04.272Z,47.88
2019-05-12T12:46:01.708Z,45.94
2019-05-12T12:47:01.868Z,46.04
2019-05-12T12:48:01.696Z,47.67
2019-05-12T12:49:06.537Z,49.08
2019-05-12T12:50:04.026Z,43.06
2019-05-12T12:51:03.776Z,44.18
2019-05-12T12:52:03.276Z,43.98